Time;durP1;ratioP1;P1;durP2;ratioP2;P2;SDS_P1;SDS_P2;PMS_P1;PMS_P2;Temp;Humidity;BMP_temperature;BMP_pressure;BME280_temperature;BME280_humidity;BME280_pressure;Samples;Min_cycle;Max_cycle;Signal;HPM_P1;HPM_P2
2021/08/08 00:00:28;;;;;;;2.80;2.50;;;20.20;67.80;;;;;;5059117;28;20024;-46
2021/08/08 00:02:54;;;;;;;5.38;2.67;;;20.20;68.00;;;;;;5058742;28;20025;-46
2021/08/08 00:05:20;;;;;;;2.80;2.47;;;20.20;68.00;;;;;;5059008;28;20025;-42
2021/08/08 00:07:45;;;;;;;2.95;2.38;;;20.20;68.10;;;;;;5058611;28;20314;-47
2021/08/08 00:10:13;;;;;;;3.78;2.65;;;20.20;68.10;;;;;;5058638;28;20102;-47
2021/08/08 00:12:41;;;;;;;3.30;2.65;;;20.20;68.30;;;;;;5058886;28;20380;-46
2021/08/08 00:15:08;;;;;;;3.70;2.80;;;20.20;68.30;;;;;;5058580;28;20064;-48
2021/08/08 00:17:34;;;;;;;3.92;2.70;;;20.10;68.40;;;;;;5057356;28;20313;-46
2021/08/08 00:19:59;;;;;;;5.38;2.95;;;20.10;68.60;;;;;;5058602;28;20036;-47
2021/08/08 00:22:25;;;;;;;5.20;2.33;;;20.10;68.70;;;;;;5058611;28;20406;-47
2021/08/08 00:24:50;;;;;;;3.88;2.35;;;20.10;68.60;;;;;;5058375;28;20377;-42
2021/08/08 00:27:17;;;;;;;2.80;2.47;;;20.10;68.80;;;;;;5058500;28;20139;-47
2021/08/08 00:29:42;;;;;;;3.58;2.60;;;20.10;68.80;;;;;;5056432;28;20099;-50
2021/08/08 00:32:08;;;;;;;3.60;2.85;;;20.10;68.70;;;;;;5057779;28;20033;-44
2021/08/08 00:34:34;;;;;;;4.55;2.70;;;20.10;68.70;;;;;;5058330;28;20397;-49
2021/08/08 00:37:00;;;;;;;3.63;2.50;;;20.10;68.70;;;;;;5058144;28;20028;-46
2021/08/08 00:39:25;;;;;;;3.05;2.47;;;20.10;68.80;;;;;;5058285;28;20108;-45
2021/08/08 00:41:52;;;;;;;6.38;3.15;;;20.00;68.80;;;;;;5058223;28;20539;-43
2021/08/08 00:44:18;;;;;;;3.45;2.75;;;20.00;69.00;;;;;;5057859;28;20070;-47
2021/08/08 00:46:44;;;;;;;3.25;2.47;;;20.00;68.90;;;;;;5057821;28;20033;-50
2021/08/08 00:49:09;;;;;;;6.03;3.05;;;20.00;69.00;;;;;;5057905;28;20036;-46
2021/08/08 00:51:36;;;;;;;2.72;2.30;;;20.00;68.90;;;;;;5058350;28;20045;-50
2021/08/08 00:54:03;;;;;;;4.38;2.67;;;20.00;69.00;;;;;;5057979;28;20033;-43
2021/08/08 00:56:29;;;;;;;3.65;2.42;;;20.00;69.00;;;;;;5058184;28;20501;-48
2021/08/08 00:58:58;;;;;;;3.28;2.60;;;19.90;69.10;;;;;;5057795;28;20037;-42
2021/08/08 01:01:27;;;;;;;5.22;2.75;;;19.90;69.20;;;;;;5058047;28;20435;-48
2021/08/08 01:03:54;;;;;;;4.13;2.75;;;19.90;69.40;;;;;;5057744;28;20033;-48
2021/08/08 01:06:47;;;;;;;4.35;2.53;;;19.90;69.40;;;;;;5057965;28;20021;-45
2021/08/08 01:09:14;;;;;;;3.30;3.00;;;19.90;69.40;;;;;;5057666;28;20029;-48
2021/08/08 01:11:40;;;;;;;3.80;2.78;;;19.90;69.60;;;;;;5056461;28;20060;-42
2021/08/08 01:14:07;;;;;;;2.88;2.42;;;19.90;69.70;;;;;;5057812;28;20298;-41
2021/08/08 01:16:35;;;;;;;2.92;2.50;;;19.80;69.70;;;;;;5057187;28;20052;-42
2021/08/08 01:19:03;;;;;;;4.00;2.60;;;19.90;69.60;;;;;;5057662;28;20029;-48
2021/08/08 01:21:32;;;;;;;3.38;2.50;;;19.80;69.50;;;;;;5057664;28;20325;-48
2021/08/08 01:23:59;;;;;;;3.47;2.40;;;19.80;69.70;;;;;;5057367;28;20025;-42
2021/08/08 01:26:27;;;;;;;4.53;2.75;;;19.80;69.70;;;;;;5057675;28;20033;-48
2021/08/08 01:28:54;;;;;;;3.63;2.80;;;19.80;69.80;;;;;;5057035;28;20028;-46
2021/08/08 01:31:20;;;;;;;2.83;2.45;;;19.80;69.80;;;;;;5057603;28;20048;-42
2021/08/08 01:33:46;;;;;;;2.45;2.25;;;19.90;69.90;;;;;;5057060;28;20039;-46
2021/08/08 01:36:12;;;;;;;3.40;2.78;;;19.80;69.80;;;;;;5057569;28;20041;-47
2021/08/08 01:38:42;;;;;;;5.22;2.85;;;19.80;69.90;;;;;;5057023;28;20293;-46
2021/08/08 01:41:12;;;;;;;5.70;2.53;;;19.80;69.80;;;;;;5057166;28;20352;-44
2021/08/08 01:43:42;;;;;;;5.85;2.65;;;19.80;69.80;;;;;;5056883;28;20061;-42
2021/08/08 01:46:10;;;;;;;;;;;19.80;69.90;;;;;;5057898;28;20423;-44
2021/08/08 01:48:43;;;;;;;5.28;2.42;;;19.80;69.70;;;;;;5056670;28;19905;-41
2021/08/08 01:51:09;;;;;;;3.03;2.58;;;19.80;70.00;;;;;;5057206;28;20063;-42
2021/08/08 01:53:35;;;;;;;4.00;2.67;;;19.70;70.00;;;;;;5056850;28;20056;-48
2021/08/08 01:56:01;;;;;;;3.30;2.63;;;19.80;70.10;;;;;;5057009;28;20037;-46
2021/08/08 01:58:27;;;;;;;5.10;2.75;;;19.70;70.20;;;;;;5056420;28;20029;-43
2021/08/08 02:00:54;;;;;;;3.15;2.60;;;19.70;70.10;;;;;;5057036;28;20297;-44
2021/08/08 02:03:20;;;;;;;5.30;2.80;;;19.70;70.10;;;;;;5056726;28;20021;-42
2021/08/08 02:05:46;;;;;;;3.13;2.83;;;19.70;70.00;;;;;;5057027;28;20033;-43
2021/08/08 02:08:12;;;;;;;7.80;3.33;;;19.70;70.10;;;;;;5056477;28;20029;-48
2021/08/08 02:10:38;;;;;;;5.20;2.80;;;19.70;70.30;;;;;;5056796;28;20025;-51
2021/08/08 02:13:04;;;;;;;2.85;2.53;;;19.70;70.40;;;;;;5056307;28;20029;-43
2021/08/08 02:15:29;;;;;;;4.80;3.17;;;19.60;70.30;;;;;;5056202;28;20045;-46
2021/08/08 02:17:55;;;;;;;4.40;2.55;;;19.70;70.50;;;;;;5056290;28;20414;-43
2021/08/08 02:20:21;;;;;;;4.43;2.80;;;19.70;70.50;;;;;;5056337;28;20451;-48
2021/08/08 02:22:48;;;;;;;3.20;2.90;;;19.70;70.70;;;;;;5056509;28;20049;-48
2021/08/08 02:25:14;;;;;;;4.15;2.72;;;19.70;70.80;;;;;;5056467;28;20059;-41
2021/08/08 02:27:41;;;;;;;4.10;2.55;;;19.60;70.70;;;;;;5056441;28;20060;-48
2021/08/08 02:30:09;;;;;;;3.17;2.67;;;19.60;70.70;;;;;;5055908;28;20025;-43
2021/08/08 02:32:35;;;;;;;3.63;2.97;;;19.60;70.80;;;;;;5056028;28;20033;-46
2021/08/08 02:35:01;;;;;;;5.70;2.88;;;19.60;70.70;;;;;;5056336;28;20040;-44
2021/08/08 02:37:27;;;;;;;4.20;3.08;;;19.60;70.80;;;;;;5055972;28;20409;-47
2021/08/08 02:39:53;;;;;;;3.65;2.90;;;19.50;70.80;;;;;;5056037;28;20041;-48
2021/08/08 02:42:19;;;;;;;4.30;3.00;;;19.50;70.80;;;;;;5055950;28;20323;-48
2021/08/08 02:44:44;;;;;;;3.70;2.72;;;19.50;70.90;;;;;;5056270;28;20032;-47
2021/08/08 02:47:10;;;;;;;6.13;2.97;;;19.50;71.10;;;;;;5055557;28;20409;-48
2021/08/08 02:49:35;;;;;;;3.42;2.67;;;19.50;71.20;;;;;;5056009;28;20036;-47
2021/08/08 02:52:01;;;;;;;3.65;3.08;;;19.50;71.20;;;;;;5056111;28;20037;-47
2021/08/08 02:54:27;;;;;;;4.43;2.97;;;19.50;71.30;;;;;;5054864;28;20321;-41
2021/08/08 02:56:53;;;;;;;3.30;2.83;;;19.40;71.40;;;;;;5055748;28;20037;-45
2021/08/08 02:59:18;;;;;;;4.80;3.13;;;19.40;71.30;;;;;;5055909;28;20025;-44
2021/08/08 03:01:44;;;;;;;5.53;3.15;;;19.40;72.10;;;;;;5055647;28;20349;-47
2021/08/08 03:04:10;;;;;;;6.20;3.10;;;19.40;71.60;;;;;;5056032;28;20114;-49
2021/08/08 03:06:35;;;;;;;7.53;3.38;;;19.30;71.60;;;;;;5056101;28;20400;-46
2021/08/08 03:09:01;;;;;;;3.85;3.00;;;19.40;71.80;;;;;;5055907;28;20461;-49
2021/08/08 03:11:27;;;;;;;3.97;2.97;;;19.30;72.00;;;;;;5056106;28;20025;-48
2021/08/08 03:13:52;;;;;;;3.03;2.75;;;19.30;72.00;;;;;;5056270;28;20033;-43
2021/08/08 03:16:18;;;;;;;3.17;2.67;;;19.30;72.30;;;;;;5055363;28;20045;-44
2021/08/08 03:18:43;;;;;;;3.72;3.08;;;19.40;72.40;;;;;;5055873;28;20253;-46
2021/08/08 03:21:09;;;;;;;4.05;3.10;;;19.40;72.60;;;;;;5055974;28;20367;-42
2021/08/08 03:23:35;;;;;;;5.30;3.22;;;19.40;72.50;;;;;;5055721;28;20029;-47
2021/08/08 03:26:02;;;;;;;4.72;2.97;;;19.40;72.40;;;;;;5054495;28;20026;-47
2021/08/08 03:28:27;;;;;;;6.88;3.10;;;19.40;72.40;;;;;;5055564;28;20098;-43
2021/08/08 03:30:53;;;;;;;4.47;3.30;;;19.40;72.50;;;;;;5055509;28;20108;-49
2021/08/08 03:33:19;;;;;;;5.10;3.05;;;19.40;72.50;;;;;;5054942;28;20033;-47
2021/08/08 03:35:44;;;;;;;5.35;3.10;;;19.40;72.40;;;;;;5054973;28;20075;-46
2021/08/08 03:38:10;;;;;;;3.83;3.03;;;19.40;72.50;;;;;;5054970;28;20033;-46
2021/08/08 03:40:36;;;;;;;4.63;3.50;;;19.40;72.50;;;;;;5055596;28;20025;-44
2021/08/08 03:43:03;;;;;;;3.88;3.00;;;19.40;72.40;;;;;;5055230;28;20072;-48
2021/08/08 03:45:29;;;;;;;4.25;3.05;;;19.40;72.40;;;;;;5055279;28;20110;-46
2021/08/08 03:47:54;;;;;;;5.50;3.17;;;19.40;72.30;;;;;;5054825;28;20056;-46
2021/08/08 03:50:20;;;;;;;4.18;3.15;;;19.40;72.20;;;;;;5054962;28;20570;-47
2021/08/08 03:52:46;;;;;;;3.50;3.15;;;19.40;72.30;;;;;;5055014;28;20490;-47
2021/08/08 03:55:12;;;;;;;3.78;3.15;;;19.50;72.40;;;;;;5054915;28;20405;-43
2021/08/08 03:57:37;;;;;;;3.40;3.10;;;19.50;72.40;;;;;;5055004;28;20083;-47
2021/08/08 04:00:04;;;;;;;4.00;3.20;;;19.50;72.40;;;;;;5054999;28;20035;-48
2021/08/08 04:02:30;;;;;;;4.80;3.15;;;19.50;72.40;;;;;;5054978;28;20082;-41
2021/08/08 04:04:55;;;;;;;4.43;3.45;;;19.50;72.40;;;;;;5056180;28;20017;-47
2021/08/08 04:07:21;;;;;;;3.42;3.03;;;19.50;72.40;;;;;;5058700;28;20116;-44
2021/08/08 04:09:47;;;;;;;9.20;3.50;;;19.60;72.40;;;;;;5058724;28;20345;-48
2021/08/08 04:12:12;;;;;;;3.53;3.15;;;19.60;72.40;;;;;;5058902;28;20068;-47
2021/08/08 04:14:38;;;;;;;4.65;3.33;;;19.60;72.30;;;;;;5058744;28;20389;-48
2021/08/08 04:17:05;;;;;;;5.38;3.60;;;19.60;72.20;;;;;;5058476;28;20087;-43
2021/08/08 04:19:32;;;;;;;3.75;3.10;;;19.70;72.30;;;;;;5058711;28;20086;-47
2021/08/08 04:21:58;;;;;;;4.32;3.05;;;19.70;72.50;;;;;;5058194;28;20025;-45
2021/08/08 04:24:24;;;;;;;5.80;3.53;;;19.70;72.60;;;;;;5058239;28;20294;-43
2021/08/08 04:26:50;;;;;;;3.38;3.08;;;19.80;72.50;;;;;;5058362;28;20032;-45
2021/08/08 04:29:15;;;;;;;6.97;3.35;;;19.80;72.40;;;;;;5057948;28;20025;-44
2021/08/08 04:31:41;;;;;;;4.22;3.60;;;19.90;72.40;;;;;;5058032;28;20047;-50
2021/08/08 04:34:07;;;;;;;4.75;3.30;;;19.90;72.10;;;;;;5057867;28;20029;-43
2021/08/08 04:36:32;;;;;;;3.80;3.25;;;19.90;72.10;;;;;;5058433;28;20029;-42
2021/08/08 04:38:58;;;;;;;4.47;3.38;;;19.90;71.90;;;;;;5058040;28;20029;-47
2021/08/08 04:41:24;;;;;;;3.97;3.05;;;20.00;71.90;;;;;;5057796;28;20025;-49
2021/08/08 04:43:49;;;;;;;6.78;3.25;;;20.00;71.80;;;;;;5058089;28;20025;-41
2021/08/08 04:46:15;;;;;;;3.80;3.10;;;20.10;71.60;;;;;;5058258;28;20025;-40
2021/08/08 04:48:41;;;;;;;2.85;2.60;;;20.10;71.30;;;;;;5058104;28;20056;-45
2021/08/08 04:51:06;;;;;;;3.95;2.90;;;20.20;71.30;;;;;;5058082;28;20309;-45
2021/08/08 04:53:32;;;;;;;4.07;3.15;;;20.20;71.20;;;;;;5057513;28;20029;-41
2021/08/08 04:55:58;;;;;;;3.50;3.00;;;20.20;71.40;;;;;;5057957;28;20028;-45
2021/08/08 04:58:23;;;;;;;4.03;2.80;;;20.30;71.40;;;;;;5057487;28;20306;-46
2021/08/08 05:00:49;;;;;;;3.92;3.30;;;20.40;71.60;;;;;;5058275;28;20108;-47
2021/08/08 05:03:15;;;;;;;3.63;3.03;;;20.40;71.40;;;;;;5057505;28;20025;-46
2021/08/08 05:05:40;;;;;;;3.58;3.00;;;20.40;71.00;;;;;;5058047;28;20029;-45
2021/08/08 05:08:06;;;;;;;5.00;3.40;;;20.50;70.90;;;;;;5057651;28;20115;-46
2021/08/08 05:10:32;;;;;;;4.32;3.28;;;20.50;70.60;;;;;;5057696;28;20047;-44
2021/08/08 05:12:57;;;;;;;4.00;3.47;;;20.60;70.50;;;;;;5057741;28;20041;-42
2021/08/08 05:15:24;;;;;;;5.25;3.50;;;20.70;70.30;;;;;;5057357;28;20128;-45
2021/08/08 05:17:50;;;;;;;4.20;3.20;;;20.70;70.10;;;;;;5056500;28;20056;-47
2021/08/08 05:20:16;;;;;;;4.88;3.20;;;20.70;70.10;;;;;;5057615;28;20033;-42
2021/08/08 05:22:42;;;;;;;6.10;3.15;;;20.70;70.00;;;;;;5057371;28;20040;-46
2021/08/08 05:25:08;;;;;;;6.38;3.28;;;20.80;69.90;;;;;;5057371;28;20035;-42
2021/08/08 05:27:34;;;;;;;3.28;2.78;;;20.80;69.60;;;;;;5056954;28;20032;-47
2021/08/08 05:30:00;;;;;;;4.25;3.30;;;20.90;69.60;;;;;;5056930;28;20147;-46
2021/08/08 05:32:26;;;;;;;4.80;3.33;;;20.90;69.60;;;;;;5055436;28;20025;-49
2021/08/08 05:34:52;;;;;;;3.10;2.75;;;20.90;69.30;;;;;;5046830;28;20044;-43
2021/08/08 05:37:18;;;;;;;5.00;2.88;;;21.00;69.30;;;;;;5056406;28;20033;-44
2021/08/08 05:39:43;;;;;;;3.47;3.10;;;21.00;69.00;;;;;;5056901;28;20025;-47
2021/08/08 05:42:09;;;;;;;4.15;3.50;;;21.00;68.80;;;;;;5056623;28;20037;-43
2021/08/08 05:44:38;;;;;;;3.78;3.20;;;21.10;69.00;;;;;;5056552;28;20029;-45
2021/08/08 05:47:07;;;;;;;3.85;3.25;;;21.10;68.80;;;;;;5056780;28;20029;-49
2021/08/08 05:49:34;;;;;;;4.95;3.30;;;21.10;68.60;;;;;;5056543;28;20090;-46
2021/08/08 05:52:04;;;;;;;3.42;3.13;;;21.10;68.50;;;;;;5056402;28;20040;-45
2021/08/08 05:54:30;;;;;;;3.90;3.00;;;21.20;68.70;;;;;;5056690;28;20036;-46
2021/08/08 05:56:56;;;;;;;4.50;3.10;;;21.20;68.80;;;;;;5056394;28;20429;-45
2021/08/08 05:59:22;;;;;;;4.97;3.38;;;21.20;68.50;;;;;;5056237;28;20032;-47
2021/08/08 06:01:47;;;;;;;3.83;3.08;;;21.30;68.10;;;;;;5056722;28;20040;-42
2021/08/08 06:04:13;;;;;;;4.15;3.28;;;21.30;68.10;;;;;;5056221;28;20432;-45
2021/08/08 06:06:39;;;;;;;4.40;3.40;;;21.30;67.80;;;;;;5056175;28;20033;-47
2021/08/08 06:09:04;;;;;;;3.58;3.08;;;21.30;68.20;;;;;;5056286;28;20029;-43
2021/08/08 06:11:30;;;;;;;3.35;2.90;;;21.30;68.20;;;;;;5056101;28;20035;-42
2021/08/08 06:13:56;;;;;;;5.18;3.40;;;21.40;68.00;;;;;;5056479;28;20037;-43
2021/08/08 06:16:22;;;;;;;4.57;3.20;;;21.40;68.10;;;;;;5055901;28;20049;-42
2021/08/08 06:18:48;;;;;;;3.75;3.40;;;21.40;68.20;;;;;;5056297;28;20060;-41
2021/08/08 06:21:14;;;;;;;3.70;3.25;;;21.50;68.40;;;;;;5056465;28;20050;-46
2021/08/08 06:23:40;;;;;;;3.95;3.05;;;21.50;68.40;;;;;;5055952;28;20072;-42
2021/08/08 06:26:05;;;;;;;5.50;3.17;;;21.50;68.30;;;;;;5056233;28;20033;-45
2021/08/08 06:28:31;;;;;;;4.50;3.20;;;21.50;67.80;;;;;;5056147;28;20364;-44
2021/08/08 06:30:56;;;;;;;3.85;3.30;;;21.60;68.10;;;;;;5052213;28;20033;-42
2021/08/08 06:33:22;;;;;;;5.07;3.28;;;21.60;68.00;;;;;;5055491;28;20302;-47
2021/08/08 06:35:49;;;;;;;5.95;2.90;;;21.70;68.00;;;;;;5055896;28;20341;-44
2021/08/08 06:38:15;;;;;;;3.75;2.83;;;21.70;67.70;;;;;;5055333;28;20036;-46
2021/08/08 06:40:40;;;;;;;4.18;3.05;;;21.70;67.60;;;;;;5055544;28;20094;-45
2021/08/08 06:43:06;;;;;;;3.47;2.90;;;21.80;67.30;;;;;;5055520;28;20060;-46
2021/08/08 06:45:33;;;;;;;3.90;2.30;;;21.80;67.10;;;;;;5055786;28;20337;-42
2021/08/08 06:48:00;;;;;;;2.67;2.47;;;21.90;66.80;;;;;;5055893;28;20075;-50
2021/08/08 06:50:27;;;;;;;3.95;2.75;;;22.00;66.50;;;;;;5055330;28;20036;-49
2021/08/08 06:52:54;;;;;;;3.25;2.40;;;22.00;66.60;;;;;;5055355;28;20040;-42
2021/08/08 06:55:19;;;;;;;2.80;2.60;;;22.10;66.30;;;;;;5055471;28;20379;-46
2021/08/08 06:57:45;;;;;;;4.07;2.63;;;22.10;65.60;;;;;;5053964;28;20036;-43
2021/08/08 07:00:11;;;;;;;6.03;2.72;;;22.20;65.30;;;;;;5055373;28;20055;-44
2021/08/08 07:02:37;;;;;;;3.05;2.38;;;22.20;65.70;;;;;;5055453;28;20033;-44
2021/08/08 07:05:07;;;;;;;3.45;2.40;;;22.30;65.30;;;;;;5055104;28;20112;-44
2021/08/08 07:07:32;;;;;;;8.45;3.03;;;22.30;65.10;;;;;;5055391;28;20105;-44
2021/08/08 07:09:58;;;;;;;3.08;2.50;;;22.30;65.00;;;;;;5055246;28;20060;-40
2021/08/08 07:12:24;;;;;;;2.95;2.65;;;22.30;64.60;;;;;;5055130;28;20037;-46
2021/08/08 07:14:50;;;;;;;4.47;2.85;;;22.40;64.40;;;;;;5055410;28;20056;-45
2021/08/08 07:17:16;;;;;;;3.35;2.80;;;22.40;64.70;;;;;;5055124;28;20041;-41
2021/08/08 07:19:42;;;;;;;2.50;2.28;;;22.50;64.60;;;;;;5055431;28;20032;-44
2021/08/08 07:22:08;;;;;;;3.55;2.55;;;22.60;64.70;;;;;;5055566;28;20032;-46
2021/08/08 07:24:34;;;;;;;3.28;2.78;;;22.60;64.60;;;;;;5055384;28;20025;-48
2021/08/08 07:27:00;;;;;;;3.33;2.60;;;22.70;64.20;;;;;;5055196;28;20136;-42
2021/08/08 07:29:26;;;;;;;3.30;2.33;;;22.70;63.90;;;;;;5055052;28;20060;-46
2021/08/08 07:31:52;;;;;;;2.53;2.30;;;22.80;63.70;;;;;;5054837;28;20033;-41
2021/08/08 07:34:18;;;;;;;2.88;2.67;;;22.80;63.70;;;;;;5054551;28;20033;-48
2021/08/08 07:36:44;;;;;;;3.85;2.90;;;22.90;63.20;;;;;;5055295;28;20111;-47
2021/08/08 07:39:10;;;;;;;3.65;2.90;;;23.00;63.10;;;;;;5054986;28;20048;-45
2021/08/08 07:41:35;;;;;;;43.85;5.28;;;23.00;63.20;;;;;;5059240;28;20318;-47
2021/08/08 07:44:01;;;;;;;2.50;2.30;;;23.10;63.10;;;;;;5059088;28;20114;-45
2021/08/08 07:46:27;;;;;;;2.83;2.30;;;23.10;63.00;;;;;;5058938;28;20029;-42
2021/08/08 07:48:52;;;;;;;3.70;2.42;;;23.20;62.30;;;;;;5059103;28;20037;-43
2021/08/08 07:51:18;;;;;;;2.55;2.30;;;23.20;61.90;;;;;;5058907;28;20416;-47
2021/08/08 07:53:44;;;;;;;2.53;2.33;;;23.20;61.90;;;;;;5058762;28;20344;-44
2021/08/08 07:56:10;;;;;;;2.72;2.40;;;23.30;62.00;;;;;;5059244;28;20025;-45
2021/08/08 07:58:35;;;;;;;3.63;2.25;;;23.30;61.90;;;;;;5058759;28;20040;-48
2021/08/08 08:01:01;;;;;;;2.45;2.25;;;23.40;61.70;;;;;;5059017;28;20021;-42
2021/08/08 08:03:28;;;;;;;2.40;2.20;;;23.40;61.60;;;;;;5058383;28;20413;-44
2021/08/08 08:05:54;;;;;;;2.70;2.35;;;23.40;61.40;;;;;;5058848;28;20033;-43
2021/08/08 08:08:20;;;;;;;2.38;2.17;;;23.50;61.70;;;;;;5058184;28;20051;-45
2021/08/08 08:10:45;;;;;;;2.55;2.35;;;23.50;61.50;;;;;;5058683;28;20029;-45
2021/08/08 08:13:11;;;;;;;2.47;2.28;;;23.50;61.20;;;;;;5057284;28;20037;-44
2021/08/08 08:15:37;;;;;;;2.72;2.15;;;23.60;61.10;;;;;;5058380;28;20336;-42
2021/08/08 08:18:03;;;;;;;3.53;1.95;;;23.60;61.20;;;;;;5058506;28;20322;-41
2021/08/08 08:20:28;;;;;;;3.22;2.70;;;23.70;61.20;;;;;;5058376;28;20025;-42
2021/08/08 08:22:54;;;;;;;2.42;2.20;;;23.70;60.70;;;;;;5058216;28;20110;-41
2021/08/08 08:25:20;;;;;;;2.72;2.38;;;23.70;60.20;;;;;;5058484;28;20025;-45
2021/08/08 08:27:46;;;;;;;3.63;2.10;;;23.80;60.00;;;;;;5058498;28;20054;-41
2021/08/08 08:30:12;;;;;;;2.67;2.28;;;23.80;59.80;;;;;;5058018;28;20047;-43
2021/08/08 08:32:38;;;;;;;4.68;2.20;;;23.90;60.30;;;;;;5058263;28;20124;-41
2021/08/08 08:35:05;;;;;;;6.13;2.53;;;23.90;59.60;;;;;;5058399;28;20104;-48
2021/08/08 08:37:32;;;;;;;3.72;2.83;;;23.90;60.00;;;;;;5058073;28;20076;-42
2021/08/08 08:39:59;;;;;;;3.08;2.30;;;24.00;60.00;;;;;;5058015;28;20444;-44
2021/08/08 08:42:27;;;;;;;3.22;2.50;;;24.00;60.30;;;;;;5057986;28;20033;-42
2021/08/08 08:44:54;;;;;;;3.88;3.20;;;24.10;59.50;;;;;;5057810;28;20032;-44
2021/08/08 08:47:21;;;;;;;4.78;2.10;;;24.10;59.60;;;;;;5057352;28;20405;-44
2021/08/08 08:49:48;;;;;;;3.65;2.10;;;24.20;59.60;;;;;;5057525;28;20298;-44
2021/08/08 08:52:23;;;;;;;2.00;1.80;;;24.20;59.00;;;;;;5056379;28;20328;-46
2021/08/08 08:54:49;;;;;;;2.33;2.13;;;24.30;59.30;;;;;;5058091;28;20325;-44
2021/08/08 08:57:15;;;;;;;2.40;1.98;;;24.30;59.50;;;;;;5057805;28;20036;-41
2021/08/08 08:59:42;;;;;;;4.13;2.47;;;24.40;59.00;;;;;;5057449;28;20025;-43
2021/08/08 09:02:07;;;;;;;3.53;2.40;;;24.40;59.00;;;;;;5057498;28;20063;-44
2021/08/08 09:04:33;;;;;;;2.78;2.10;;;24.50;59.00;;;;;;5057491;28;20060;-42
2021/08/08 09:06:59;;;;;;;1.95;1.80;;;24.50;58.70;;;;;;5057514;28;20025;-42
2021/08/08 09:09:25;;;;;;;4.18;2.20;;;24.60;58.90;;;;;;5057510;28;20025;-45
2021/08/08 09:11:52;;;;;;;2.33;2.13;;;24.60;58.80;;;;;;5056264;28;20037;-45
2021/08/08 09:14:18;;;;;;;2.42;2.22;;;24.70;58.80;;;;;;5057620;28;20029;-44
2021/08/08 09:16:48;;;;;;;1.85;1.70;;;24.70;58.50;;;;;;5057135;28;20071;-46
2021/08/08 09:19:29;;;;;;;3.42;1.88;;;24.80;58.80;;;;;;5057147;28;20033;-44
2021/08/08 09:21:55;;;;;;;2.38;1.80;;;24.80;58.80;;;;;;5056973;28;20055;-41
2021/08/08 09:24:29;;;;;;;2.45;1.67;;;24.90;58.20;;;;;;5057301;28;20032;-41
2021/08/08 09:27:08;;;;;;;1.52;1.42;;;24.90;57.90;;;;;;5057028;28;20025;-40
2021/08/08 09:29:36;;;;;;;2.67;1.70;;;25.00;57.50;;;;;;5056943;28;20358;-42
2021/08/08 09:32:03;;;;;;;6.20;1.80;;;25.00;57.90;;;;;;5057017;28;20033;-45
2021/08/08 09:34:34;;;;;;;5.88;1.92;;;25.00;57.60;;;;;;5056767;28;20079;-47
2021/08/08 09:37:03;;;;;;;1.60;1.20;;;25.10;56.90;;;;;;5056993;28;20033;-44
2021/08/08 09:39:29;;;;;;;3.03;1.58;;;25.10;57.50;;;;;;5056738;28;20507;-45
2021/08/08 09:42:14;;;;;;;2.65;1.60;;;25.20;57.30;;;;;;5056746;28;20060;-42
2021/08/08 09:45:14;;;;;;;1.38;1.27;;;25.20;56.20;;;;;;5057050;28;20411;-46
2021/08/08 09:47:47;;;;;;;1.90;1.45;;;25.30;57.50;;;;;;5056806;28;20041;-42
2021/08/08 09:50:15;;;;;;;1.73;1.40;;;25.40;57.00;;;;;;5056696;28;20025;-44
2021/08/08 09:52:49;;;;;;;1.40;1.30;;;25.40;56.80;;;;;;5056477;28;20044;-46
2021/08/08 09:55:35;;;;;;;1.40;1.30;;;25.50;56.40;;;;;;5056732;28;20126;-45
2021/08/08 09:58:27;;;;;;;1.45;1.35;;;25.50;56.80;;;;;;5056342;28;20429;-43
2021/08/08 10:01:00;;;;;;;2.67;1.40;;;25.60;56.40;;;;;;5056041;28;20120;-45
2021/08/08 10:03:26;;;;;;;3.22;1.85;;;25.60;56.50;;;;;;5055700;28;20116;-46
2021/08/08 10:05:55;;;;;;;1.40;1.30;;;25.60;56.60;;;;;;5056537;28;20274;-43
2021/08/08 10:08:23;;;;;;;1.33;1.23;;;25.70;56.50;;;;;;5055861;28;20029;-47
2021/08/08 10:10:52;;;;;;;2.60;1.25;;;25.70;56.30;;;;;;5056340;28;20028;-43
2021/08/08 10:13:47;;;;;;;2.47;1.60;;;25.80;56.40;;;;;;5055842;28;20033;-45
2021/08/08 10:16:14;;;;;;;2.17;1.40;;;25.80;56.40;;;;;;5055716;28;20341;-47
2021/08/08 10:18:43;;;;;;;1.42;1.33;;;25.90;56.20;;;;;;5056226;28;20377;-42
2021/08/08 10:21:10;;;;;;;1.33;1.20;;;25.90;56.00;;;;;;5056235;28;20116;-43
2021/08/08 10:23:37;;;;;;;1.88;1.60;;;26.00;56.30;;;;;;5056126;28;20113;-44
2021/08/08 10:26:04;;;;;;;1.33;1.23;;;26.10;56.30;;;;;;5056197;28;20028;-42
2021/08/08 10:28:30;;;;;;;2.10;1.25;;;26.10;56.40;;;;;;5055978;28;20037;-41
2021/08/08 10:30:59;;;;;;;2.42;1.30;;;26.20;55.90;;;;;;5055984;28;20068;-44
2021/08/08 10:33:24;;;;;;;2.25;1.33;;;26.30;55.40;;;;;;5055511;28;20056;-45
2021/08/08 10:35:51;;;;;;;3.67;1.27;;;26.40;55.60;;;;;;5055805;28;20130;-44
2021/08/08 10:38:17;;;;;;;1.95;1.10;;;26.40;55.40;;;;;;5055475;28;20032;-44
2021/08/08 10:40:44;;;;;;;1.67;1.17;;;26.50;54.70;;;;;;5055539;28;20036;-46
2021/08/08 10:43:23;;;;;;;1.60;1.00;;;26.60;54.70;;;;;;5055702;28;20306;-44
2021/08/08 10:45:48;;;;;;;1.25;0.90;;;26.60;54.70;;;;;;5056063;28;20082;-42
2021/08/08 10:48:14;;;;;;;2.53;1.08;;;26.70;54.80;;;;;;5055518;28;20359;-44
2021/08/08 10:50:49;;;;;;;2.13;1.10;;;26.80;53.80;;;;;;5055411;28;20054;-46
2021/08/08 10:53:26;;;;;;;1.52;1.23;;;26.80;54.10;;;;;;5055621;28;20381;-48
2021/08/08 10:56:11;;;;;;;2.03;1.17;;;26.90;54.40;;;;;;5056057;28;20307;-44
2021/08/08 10:58:39;;;;;;;1.40;1.10;;;27.00;54.40;;;;;;5055672;28;20051;-42
2021/08/08 11:01:18;;;;;;;1.33;1.23;;;27.10;54.40;;;;;;5055870;28;20061;-43
2021/08/08 11:03:53;;;;;;;2.00;1.65;;;27.20;53.90;;;;;;5055673;28;20033;-49
2021/08/08 11:06:26;;;;;;;1.52;1.13;;;27.30;54.00;;;;;;5055834;28;20021;-45
2021/08/08 11:08:53;;;;;;;1.20;1.10;;;27.30;53.40;;;;;;5055741;28;20065;-48
2021/08/08 11:11:27;;;;;;;1.27;1.10;;;27.40;53.80;;;;;;5055245;28;20036;-43
2021/08/08 11:13:54;;;;;;;1.98;1.08;;;27.50;53.60;;;;;;5055481;28;20044;-42
2021/08/08 11:16:20;;;;;;;1.48;1.30;;;27.50;53.20;;;;;;5058675;28;20138;-41
2021/08/08 11:18:56;;;;;;;4.80;1.35;;;27.50;53.00;;;;;;5059554;28;20363;-48
2021/08/08 11:21:22;;;;;;;1.58;1.48;;;27.60;52.60;;;;;;5059880;28;20029;-42
2021/08/08 11:24:03;;;;;;;1.88;1.50;;;27.60;52.70;;;;;;5059742;28;20059;-41
2021/08/08 11:26:29;;;;;;;1.58;1.40;;;27.70;53.00;;;;;;5059584;28;20025;-47
2021/08/08 11:28:58;;;;;;;1.65;1.10;;;27.80;53.30;;;;;;5059186;28;20040;-49
2021/08/08 11:31:27;;;;;;;1.92;1.40;;;27.80;52.80;;;;;;5059425;28;20122;-42
2021/08/08 11:34:01;;;;;;;2.55;1.98;;;27.90;53.00;;;;;;5059454;28;20060;-47
2021/08/08 11:36:37;;;;;;;1.80;1.48;;;28.00;52.60;;;;;;5059387;28;20025;-43
2021/08/08 11:39:11;;;;;;;2.72;1.38;;;28.10;52.30;;;;;;5059042;28;20337;-43
2021/08/08 11:41:37;;;;;;;2.60;1.30;;;28.20;51.40;;;;;;5058604;28;20044;-42
2021/08/08 11:44:09;;;;;;;1.55;1.40;;;28.40;52.20;;;;;;5059029;28;20195;-44
2021/08/08 11:46:37;;;;;;;1.70;1.33;;;28.50;51.60;;;;;;5059397;28;20020;-42
2021/08/08 11:49:41;;;;;;;1.58;1.10;;;28.60;51.20;;;;;;5058863;28;20033;-42
2021/08/08 11:52:06;;;;;;;2.53;1.33;;;28.80;51.10;;;;;;5058294;28;20045;-42
2021/08/08 11:54:33;;;;;;;1.83;1.40;;;28.90;50.90;;;;;;5059068;28;20036;-47
2021/08/08 11:57:00;;;;;;;1.73;1.40;;;29.00;50.60;;;;;;5058666;28;20119;-41
2021/08/08 11:59:33;;;;;;;2.90;1.20;;;29.10;50.60;;;;;;5057414;28;20033;-42
2021/08/08 12:02:01;;;;;;;5.25;1.58;;;29.30;50.40;;;;;;5058690;28;20079;-47
2021/08/08 12:04:28;;;;;;;1.15;0.98;;;29.50;50.20;;;;;;5058649;28;20021;-45
2021/08/08 12:06:54;;;;;;;1.15;1.05;;;29.70;49.70;;;;;;5058178;28;20116;-43
2021/08/08 12:09:22;;;;;;;1.92;1.20;;;29.90;48.80;;;;;;5058135;28;20436;-43
2021/08/08 12:11:51;;;;;;;1.85;1.50;;;30.00;48.90;;;;;;5058379;28;20091;-43
2021/08/08 12:14:17;;;;;;;4.10;1.27;;;30.20;48.50;;;;;;5058356;28;20021;-43
2021/08/08 12:16:42;;;;;;;1.25;1.15;;;30.30;48.50;;;;;;5058123;28;20095;-42
2021/08/08 12:19:08;;;;;;;1.90;1.15;;;30.60;47.90;;;;;;5058303;28;20437;-46
2021/08/08 12:21:36;;;;;;;11.95;2.50;;;30.70;47.70;;;;;;5058794;28;20056;-42
2021/08/08 12:24:12;;;;;;;1.27;1.05;;;31.00;46.40;;;;;;5058479;28;20029;-46
2021/08/08 12:26:40;;;;;;;4.35;1.00;;;31.10;46.60;;;;;;5058419;28;20478;-43
2021/08/08 12:29:07;;;;;;;1.27;1.10;;;31.30;47.00;;;;;;5058518;28;20099;-41
2021/08/08 12:31:35;;;;;;;1.88;1.25;;;31.50;46.00;;;;;;5058133;28;20427;-43
2021/08/08 12:34:01;;;;;;;1.67;1.35;;;31.70;46.00;;;;;;5058867;28;20320;-44
2021/08/08 12:36:43;;;;;;;3.97;1.40;;;31.80;45.60;;;;;;5058270;28;20021;-45
2021/08/08 12:39:10;;;;;;;2.55;1.02;;;31.90;45.20;;;;;;5058521;28;20159;-42
2021/08/08 12:41:41;;;;;;;1.27;1.10;;;32.10;45.40;;;;;;5058477;28;20029;-43
2021/08/08 12:44:09;;;;;;;2.22;1.10;;;32.20;44.80;;;;;;5058239;28;20106;-44
2021/08/08 12:46:42;;;;;;;5.95;1.70;;;32.40;44.50;;;;;;5058272;28;20159;-46
2021/08/08 12:49:09;;;;;;;2.65;1.38;;;32.50;43.80;;;;;;5058136;28;20041;-46